Time;durP1;ratioP1;P1;durP2;ratioP2;P2;SDS_P1;SDS_P2;PMS_P1;PMS_P2;Temp;Humidity;BMP_temperature;BMP_pressure;BME280_temperature;BME280_humidity;BME280_pressure;Samples;Min_cycle;Max_cycle;Signal;HPM_P1;HPM_P2
2023/01/03 00:01:15;;;;;;;5.30;3.20;;;12.40;91.20;;;;;;5053485;28;20419;-74
2023/01/03 00:03:41;;;;;;;6.07;3.40;;;12.40;91.20;;;;;;5053440;28;20017;-73
2023/01/03 00:06:19;;;;;;;5.60;3.33;;;12.40;91.20;;;;;;5053326;28;20021;-73
2023/01/03 00:08:46;;;;;;;5.88;3.30;;;12.40;91.20;;;;;;5052110;28;20025;-72
2023/01/03 00:11:17;;;;;;;5.63;3.17;;;12.40;91.20;;;;;;5053348;28;20422;-73
2023/01/03 00:13:43;;;;;;;5.07;3.28;;;12.40;91.20;;;;;;5053254;28;20051;-73
2023/01/03 00:16:18;;;;;;;5.95;3.50;;;12.40;91.20;;;;;;5053393;28;20092;-73
2023/01/03 00:18:44;;;;;;;4.97;2.90;;;12.40;91.20;;;;;;5053266;28;20444;-74
2023/01/03 00:21:10;;;;;;;5.53;3.08;;;12.40;91.20;;;;;;5051729;28;20078;-73
2023/01/03 00:23:36;;;;;;;5.65;2.95;;;12.40;91.20;;;;;;5053289;28;20085;-73
2023/01/03 00:26:14;;;;;;;5.72;3.30;;;12.40;91.20;;;;;;5051801;28;20075;-73
2023/01/03 00:28:40;;;;;;;5.63;3.20;;;12.40;91.20;;;;;;5051353;28;20112;-73
2023/01/03 00:31:07;;;;;;;4.97;3.17;;;12.40;91.20;;;;;;5051490;28;20017;-73
2023/01/03 00:33:33;;;;;;;5.63;3.50;;;12.40;91.20;;;;;;5052913;28;20059;-73
2023/01/03 00:36:07;;;;;;;5.28;3.10;;;12.40;91.20;;;;;;5052958;28;20031;-73
2023/01/03 00:38:34;;;;;;;5.28;3.05;;;12.40;91.20;;;;;;5052842;28;20553;-74
2023/01/03 00:41:26;;;;;;;6.40;3.63;;;12.40;91.20;;;;;;5052349;28;20032;-73
2023/01/03 00:43:52;;;;;;;6.07;3.30;;;12.40;91.20;;;;;;5046911;28;20403;-73
2023/01/03 00:46:18;;;;;;;6.07;3.55;;;12.40;91.20;;;;;;5044512;28;20030;-73
2023/01/03 00:48:44;;;;;;;5.85;3.20;;;12.30;91.10;;;;;;5031122;28;20107;-74
2023/01/03 00:51:16;;;;;;;6.32;3.40;;;12.40;91.10;;;;;;5032649;28;20067;-73
2023/01/03 00:53:42;;;;;;;;;;;12.40;91.10;;;;;;5032066;28;20018;-74
2023/01/03 00:56:11;;;;;;;5.78;3.30;;;12.40;91.10;;;;;;5031051;28;19905;-72
2023/01/03 00:58:37;;;;;;;5.63;3.40;;;12.40;91.20;;;;;;5032117;28;20028;-73
2023/01/03 01:01:14;;;;;;;5.28;3.08;;;12.40;91.10;;;;;;5032371;28;20056;-73
2023/01/03 01:03:43;;;;;;;5.30;3.05;;;12.40;91.10;;;;;;5031197;28;20495;-72
2023/01/03 01:06:16;;;;;;;5.43;3.25;;;12.40;91.10;;;;;;5032342;28;20021;-73
2023/01/03 01:08:43;;;;;;;5.18;3.00;;;12.40;91.10;;;;;;5032386;28;20100;-73
2023/01/03 01:11:09;;;;;;;5.60;3.33;;;12.40;91.10;;;;;;5030569;28;20021;-72
2023/01/03 01:13:36;;;;;;;5.47;3.33;;;12.40;91.10;;;;;;5032308;28;20443;-73
2023/01/03 01:16:15;;;;;;;6.18;3.47;;;12.40;91.10;;;;;;5030980;28;20025;-74
2023/01/03 01:18:43;;;;;;;4.75;2.80;;;12.30;91.10;;;;;;5032270;28;20121;-73
2023/01/03 01:21:11;;;;;;;5.07;2.88;;;12.40;91.10;;;;;;5031874;28;20024;-73
2023/01/03 01:23:38;;;;;;;5.60;3.38;;;12.40;91.10;;;;;;5030888;28;20049;-73
2023/01/03 01:26:05;;;;;;;6.35;3.70;;;12.40;91.10;;;;;;5030761;28;20021;-73
2023/01/03 01:28:31;;;;;;;5.90;3.30;;;12.30;91.10;;;;;;5031676;28;20017;-74
2023/01/03 01:30:58;;;;;;;5.43;3.15;;;12.40;91.10;;;;;;5030482;28;20032;-73
2023/01/03 01:33:24;;;;;;;5.60;3.30;;;12.40;91.10;;;;;;5031948;28;20028;-73
2023/01/03 01:35:49;;;;;;;5.57;3.22;;;12.40;91.10;;;;;;5030541;28;20026;-73
2023/01/03 01:38:15;;;;;;;5.72;3.22;;;12.30;91.10;;;;;;5031892;28;20030;-73
2023/01/03 01:40:40;;;;;;;6.35;3.60;;;12.40;91.10;;;;;;5031527;28;20033;-73
2023/01/03 01:46:22;;;;;;;5.78;3.30;;;12.30;91.10;;;;;;5032130;28;20428;-73
2023/01/03 01:48:53;;;;;;;6.30;3.22;;;12.40;91.10;;;;;;5031706;28;20484;-72
2023/01/03 01:51:21;;;;;;;5.22;3.15;;;12.30;91.10;;;;;;5031608;28;20048;-74
2023/01/03 01:53:46;;;;;;;5.22;3.00;;;12.30;91.10;;;;;;5031599;28;20022;-74
2023/01/03 01:56:16;;;;;;;5.32;3.03;;;12.30;91.10;;;;;;5031671;28;20040;-73
2023/01/03 01:58:45;;;;;;;5.45;3.17;;;12.30;91.10;;;;;;5031683;28;20029;-74
2023/01/03 02:01:12;;;;;;;5.65;3.47;;;12.40;91.10;;;;;;5031549;28;20030;-73
2023/01/03 02:03:40;;;;;;;5.28;3.17;;;12.40;91.10;;;;;;5031693;28;20036;-73
2023/01/03 02:06:08;;;;;;;4.95;3.08;;;12.30;91.10;;;;;;5030214;28;20024;-73
2023/01/03 02:08:33;;;;;;;5.15;3.10;;;12.30;91.10;;;;;;5031626;28;20022;-73
2023/01/03 02:11:10;;;;;;;5.53;3.40;;;12.30;91.10;;;;;;5031119;28;20039;-73
2023/01/03 02:14:06;;;;;;;5.80;3.70;;;12.30;91.10;;;;;;5030365;28;20036;-73
2023/01/03 02:16:53;;;;;;;5.10;3.05;;;12.30;91.10;;;;;;5031451;28;20057;-73
2023/01/03 02:19:51;;;;;;;6.22;3.50;;;12.30;91.10;;;;;;5030371;28;20048;-73
2023/01/03 02:23:00;;;;;;;5.70;3.03;;;12.30;91.10;;;;;;5031338;28;20549;-73
2023/01/03 02:25:37;;;;;;;5.75;3.30;;;12.30;91.10;;;;;;5030383;28;20483;-73
2023/01/03 02:28:28;;;;;;;5.40;3.30;;;12.30;91.10;;;;;;5029615;28;20017;-73
2023/01/03 02:31:03;;;;;;;5.80;3.22;;;12.30;91.10;;;;;;5031135;28;20029;-73
2023/01/03 02:33:43;;;;;;;5.50;3.20;;;12.30;91.10;;;;;;5030271;28;20017;-73
2023/01/03 02:36:34;;;;;;;5.53;3.53;;;12.30;91.10;;;;;;5030224;28;20029;-73
2023/01/03 02:39:26;;;;;;;5.50;3.08;;;12.30;91.10;;;;;;5031264;28;20506;-73
2023/01/03 02:45:11;;;;;;;5.30;3.10;;;12.30;91.10;;;;;;5031228;28;20025;-73
2023/01/03 02:47:59;;;;;;;5.60;3.45;;;12.30;91.10;;;;;;5029993;28;20037;-73
2023/01/03 02:50:28;;;;;;;5.60;3.42;;;12.30;91.10;;;;;;5029904;28;20030;-73
2023/01/03 02:52:58;;;;;;;5.88;3.45;;;12.30;91.10;;;;;;5030857;28;20044;-73
2023/01/03 02:55:26;;;;;;;5.40;3.30;;;12.30;91.10;;;;;;5031133;28;20022;-73
2023/01/03 02:58:00;;;;;;;5.80;3.60;;;12.40;91.10;;;;;;5031104;28;20090;-72
2023/01/03 03:00:29;;;;;;;5.82;3.75;;;12.40;91.10;;;;;;5030029;28;20030;-73
2023/01/03 03:03:05;;;;;;;5.72;3.60;;;12.40;91.10;;;;;;5029447;28;20029;-73
2023/01/03 03:05:42;;;;;;;5.22;3.38;;;12.40;91.10;;;;;;5031195;28;20495;-73
2023/01/03 03:08:08;;;;;;;5.80;3.47;;;12.30;91.10;;;;;;5034494;28;20498;-73
2023/01/03 03:13:30;;;;;;;6.28;3.90;;;12.30;91.10;;;;;;5034944;28;20096;-73
2023/01/03 03:15:58;;;;;;;5.90;3.60;;;12.30;91.10;;;;;;5034610;28;20117;-73
2023/01/03 03:18:44;;;;;;;5.57;3.50;;;12.30;91.10;;;;;;5034385;28;20495;-72
2023/01/03 03:26:49;;;;;;;6.57;4.00;;;12.30;91.10;;;;;;5034456;28;20216;-74
2023/01/03 03:29:17;;;;;;;5.80;3.55;;;12.30;91.10;;;;;;5033777;28;20052;-73
2023/01/03 03:31:47;;;;;;;6.30;3.80;;;12.30;91.10;;;;;;5033838;28;20022;-73
2023/01/03 03:34:17;;;;;;;5.68;3.55;;;12.30;91.10;;;;;;5034266;28;20021;-73
2023/01/03 03:36:59;;;;;;;5.50;3.40;;;12.30;91.30;;;;;;5034172;28;20029;-73
2023/01/03 03:45:43;;;;;;;5.93;4.03;;;12.30;91.10;;;;;;5034108;28;20111;-73
2023/01/03 03:48:23;;;;;;;6.03;3.63;;;12.30;91.10;;;;;;5033854;28;20026;-73
2023/01/03 03:50:53;;;;;;;5.88;3.65;;;12.30;91.10;;;;;;5032280;28;20033;-73
2023/01/03 03:53:24;;;;;;;5.90;3.60;;;12.30;91.10;;;;;;5035295;28;20071;-73
2023/01/03 03:55:57;;;;;;;5.90;3.58;;;12.30;91.10;;;;;;5043312;28;20025;-73
2023/01/03 03:58:33;;;;;;;6.30;3.92;;;12.30;91.10;;;;;;5044644;28;20040;-73
2023/01/03 04:01:00;;;;;;;7.07;4.00;;;12.30;91.10;;;;;;5047676;28;20487;-73
2023/01/03 04:03:27;;;;;;;6.22;3.70;;;12.30;91.10;;;;;;5052267;28;20029;-73
2023/01/03 04:06:05;;;;;;;6.00;3.78;;;12.30;91.10;;;;;;5053535;28;20029;-74
2023/01/03 04:08:31;;;;;;;5.57;3.60;;;12.30;91.10;;;;;;5052124;28;20495;-73
2023/01/03 04:11:04;;;;;;;6.88;4.07;;;12.30;91.10;;;;;;5052816;28;20053;-73
2023/01/03 04:13:31;;;;;;;5.70;3.72;;;12.30;91.10;;;;;;5052189;28;20021;-73
2023/01/03 04:15:56;;;;;;;6.00;3.88;;;12.30;91.10;;;;;;5053234;28;20021;-73
2023/01/03 04:18:22;;;;;;;6.93;4.20;;;12.30;91.10;;;;;;5053189;28;20162;-73
2023/01/03 04:20:47;;;;;;;6.05;3.45;;;12.30;91.00;;;;;;5051090;28;20061;-73
2023/01/03 04:23:13;;;;;;;6.50;3.90;;;12.30;91.10;;;;;;5053160;28;20032;-73
2023/01/03 04:25:38;;;;;;;5.95;3.58;;;12.30;91.00;;;;;;5051896;28;20390;-73
2023/01/03 04:28:04;;;;;;;5.90;3.70;;;12.30;91.00;;;;;;5053047;28;20033;-74
2023/01/03 04:30:29;;;;;;;6.00;3.78;;;12.30;91.00;;;;;;5052892;28;20017;-73
2023/01/03 04:32:56;;;;;;;6.90;4.30;;;12.30;91.00;;;;;;5052849;28;20107;-73
2023/01/03 04:35:22;;;;;;;6.53;4.20;;;12.30;91.00;;;;;;5052846;28;20021;-73
2023/01/03 04:37:47;;;;;;;6.60;3.92;;;12.30;91.00;;;;;;5052920;28;20104;-73
2023/01/03 04:40:13;;;;;;;6.90;4.00;;;12.30;91.00;;;;;;5051401;28;20075;-73
2023/01/03 04:45:22;;;;;;;6.25;3.90;;;12.30;91.10;;;;;;5052696;28;20485;-73
2023/01/03 04:47:48;;;;;;;5.75;3.72;;;12.30;91.00;;;;;;5052800;28;20029;-73
2023/01/03 04:50:13;;;;;;;6.53;4.10;;;12.30;91.00;;;;;;5052526;28;20495;-73
2023/01/03 04:52:39;;;;;;;6.05;3.90;;;12.30;91.10;;;;;;5051166;28;20021;-73
2023/01/03 04:55:05;;;;;;;7.07;4.30;;;12.30;91.00;;;;;;5051222;28;20384;-70
2023/01/03 04:57:30;;;;;;;6.28;3.85;;;12.30;91.00;;;;;;5052566;28;20032;-74
2023/01/03 04:59:56;;;;;;;5.88;3.85;;;12.30;91.30;;;;;;5051090;28;20029;-73
2023/01/03 05:02:21;;;;;;;6.53;4.03;;;12.30;91.00;;;;;;5052056;28;20123;-73
2023/01/03 05:04:47;;;;;;;6.40;4.13;;;12.30;91.00;;;;;;5052499;28;20021;-73
2023/01/03 05:07:12;;;;;;;6.95;3.88;;;12.30;91.00;;;;;;5050848;28;20055;-73
2023/01/03 05:09:38;;;;;;;6.90;3.80;;;12.30;91.00;;;;;;5050979;28;20108;-74
2023/01/03 05:12:03;;;;;;;5.85;3.78;;;12.30;91.00;;;;;;5051924;28;20029;-73
2023/01/03 05:14:29;;;;;;;6.10;4.00;;;12.30;91.00;;;;;;5050873;28;20025;-73
2023/01/03 05:16:54;;;;;;;6.05;4.07;;;12.30;91.00;;;;;;5052259;28;20025;-73
2023/01/03 05:19:20;;;;;;;6.13;4.30;;;12.30;91.00;;;;;;5051991;28;20116;-72
2023/01/03 05:27:13;;;;;;;5.93;4.10;;;12.30;91.00;;;;;;5051868;28;20032;-74
2023/01/03 05:29:39;;;;;;;6.53;4.00;;;12.30;91.00;;;;;;5050226;28;20017;-71
2023/01/03 05:32:05;;;;;;;6.07;3.90;;;12.30;91.00;;;;;;5051644;28;20107;-73
2023/01/03 05:34:30;;;;;;;6.68;4.13;;;12.30;91.00;;;;;;5050136;28;20031;-78
2023/01/03 05:36:56;;;;;;;6.75;4.35;;;12.30;91.00;;;;;;5044902;28;20037;-70
2023/01/03 05:39:21;;;;;;;7.13;4.30;;;12.30;91.00;;;;;;5045946;28;20044;-71
2023/01/03 05:41:58;;;;;;;6.72;4.60;;;12.30;91.00;;;;;;5039820;28;20720;-70
2023/01/03 05:44:25;;;;;;;7.20;4.50;;;12.30;91.00;;;;;;5045743;28;20029;-69
2023/01/03 05:46:51;;;;;;;7.13;4.40;;;12.30;91.00;;;;;;5042987;28;20025;-69
2023/01/03 05:49:17;;;;;;;6.40;4.10;;;12.30;91.00;;;;;;5045383;28;20040;-69
2023/01/03 05:51:42;;;;;;;6.22;3.88;;;12.30;91.00;;;;;;5045428;28;20085;-70
2023/01/03 05:54:16;;;;;;;6.68;4.35;;;12.30;91.00;;;;;;5045550;28;20041;-69
2023/01/03 05:56:42;;;;;;;6.90;3.95;;;12.30;91.00;;;;;;5036806;28;20479;-70
2023/01/03 05:59:07;;;;;;;6.70;4.00;;;12.30;91.00;;;;;;5036684;28;20021;-70
2023/01/03 06:01:33;;;;;;;6.95;4.28;;;12.30;91.10;;;;;;5029508;28;20076;-69
2023/01/03 06:03:59;;;;;;;6.22;4.03;;;12.30;91.00;;;;;;5023952;28;20285;-70
2023/01/03 06:06:24;;;;;;;6.00;4.03;;;12.30;91.00;;;;;;5024916;28;20026;-70
2023/01/03 06:08:50;;;;;;;6.63;4.40;;;12.30;91.00;;;;;;5024613;28;20028;-71
2023/01/03 06:11:16;;;;;;;7.18;4.53;;;12.30;91.00;;;;;;5030442;28;20039;-72
2023/01/03 06:13:42;;;;;;;7.05;4.57;;;12.30;91.00;;;;;;5028967;28;20025;-69
2023/01/03 06:19:02;;;;;;;6.38;4.68;;;12.30;91.10;;;;;;5045215;28;20071;-70
2023/01/03 06:21:29;;;;;;;6.85;4.28;;;12.30;91.00;;;;;;5044558;28;20025;-70
2023/01/03 06:23:54;;;;;;;6.57;4.40;;;12.30;91.00;;;;;;5044471;28;20142;-70
2023/01/03 06:26:22;;;;;;;6.50;4.40;;;12.30;91.00;;;;;;5044799;28;20713;-69
2023/01/03 06:28:47;;;;;;;6.57;4.53;;;12.30;91.00;;;;;;5043583;28;20026;-69
2023/01/03 06:31:13;;;;;;;6.65;4.30;;;12.30;91.00;;;;;;5041205;28;20029;-73
2023/01/03 06:33:39;;;;;;;7.03;4.20;;;12.30;91.00;;;;;;5042620;28;20025;-69
2023/01/03 06:36:08;;;;;;;6.72;4.70;;;12.30;91.00;;;;;;5039486;28;20036;-70
2023/01/03 06:38:34;;;;;;;7.18;4.57;;;12.30;91.00;;;;;;5038380;28;20457;-71
2023/01/03 06:41:00;;;;;;;6.75;4.45;;;12.30;91.00;;;;;;5043324;28;20403;-71
2023/01/03 06:43:26;;;;;;;7.28;4.80;;;12.30;91.00;;;;;;5047633;28;20036;-70
2023/01/03 06:54:07;;;;;;;6.63;4.47;;;12.30;91.00;;;;;;5046404;28;20032;-70
2023/01/03 06:56:33;;;;;;;6.38;4.22;;;12.30;91.00;;;;;;5046527;28;20478;-68
2023/01/03 06:58:58;;;;;;;6.97;4.80;;;12.30;91.00;;;;;;5046599;28;20025;-69
2023/01/03 07:01:24;;;;;;;6.72;4.63;;;12.30;91.00;;;;;;5046404;28;20182;-69
2023/01/03 07:03:49;;;;;;;6.70;4.57;;;12.30;91.00;;;;;;5045166;28;20505;-69
2023/01/03 07:06:15;;;;;;;6.38;4.43;;;12.30;91.00;;;;;;5046010;28;20028;-69
2023/01/03 07:08:40;;;;;;;7.13;4.80;;;12.30;90.90;;;;;;5029904;28;20029;-70
2023/01/03 07:11:06;;;;;;;6.90;4.65;;;12.30;90.90;;;;;;5027217;28;20040;-68
2023/01/03 07:16:17;;;;;;;7.32;5.18;;;12.30;90.90;;;;;;5027569;28;20094;-69
2023/01/03 07:18:43;;;;;;;7.10;4.93;;;12.30;90.90;;;;;;5027220;28;20532;-69
2023/01/03 07:21:09;;;;;;;7.30;5.05;;;12.30;90.90;;;;;;5027132;28;20136;-69
2023/01/03 07:23:34;;;;;;;7.03;4.82;;;12.30;90.90;;;;;;5025483;28;20021;-68
2023/01/03 07:26:00;;;;;;;7.68;5.28;;;12.30;90.90;;;;;;5027672;28;20033;-70
2023/01/03 07:28:25;;;;;;;7.22;4.90;;;12.30;90.90;;;;;;5025281;28;20025;-70
2023/01/03 07:30:51;;;;;;;6.93;4.80;;;12.30;90.90;;;;;;5026869;28;20565;-70
2023/01/03 07:33:17;;;;;;;7.10;4.85;;;12.30;90.90;;;;;;5025564;28;20471;-68
2023/01/03 07:35:43;;;;;;;7.78;5.32;;;12.20;90.90;;;;;;5026851;28;20496;-69
2023/01/03 07:38:11;;;;;;;7.10;4.65;;;12.30;90.90;;;;;;5027141;28;20030;-75
2023/01/03 07:40:36;;;;;;;7.30;5.13;;;12.20;90.90;;;;;;5026986;28;20029;-70
2023/01/03 07:45:46;;;;;;;7.57;5.28;;;12.30;90.90;;;;;;5027238;28;20339;-69
2023/01/03 07:48:12;;;;;;;8.13;5.60;;;12.30;90.90;;;;;;5042059;28;20060;-68
2023/01/03 07:50:38;;;;;;;7.53;5.13;;;12.30;90.90;;;;;;5041654;28;20038;-68
2023/01/03 07:53:07;;;;;;;7.20;5.38;;;12.30;90.90;;;;;;5026650;28;20036;-69
2023/01/03 07:55:35;;;;;;;7.55;4.97;;;12.30;90.90;;;;;;5041789;28;20035;-70
2023/01/03 07:58:01;;;;;;;7.13;5.22;;;12.20;91.10;;;;;;5026459;28;20037;-69
2023/01/03 08:00:26;;;;;;;7.43;5.10;;;12.30;90.80;;;;;;5025086;28;20067;-69
2023/01/03 08:02:56;;;;;;;7.90;5.60;;;12.30;90.80;;;;;;5041268;28;20029;-69
2023/01/03 08:05:22;;;;;;;8.18;5.65;;;12.30;90.80;;;;;;5024818;28;20137;-69
2023/01/03 08:07:49;;;;;;;8.75;6.38;;;12.30;90.80;;;;;;5041711;28;20053;-69
2023/01/03 08:13:18;;;;;;;8.48;6.28;;;12.30;90.80;;;;;;5026949;28;20132;-69
2023/01/03 08:15:49;;;;;;;8.30;5.82;;;12.30;90.80;;;;;;5025464;28;20026;-71
2023/01/03 08:18:17;;;;;;;8.38;6.00;;;12.30;90.80;;;;;;5041205;28;20033;-70
2023/01/03 08:20:43;;;;;;;9.07;6.30;;;12.30;90.80;;;;;;5041170;28;20068;-68
2023/01/03 08:23:09;;;;;;;7.65;5.50;;;12.30;90.80;;;;;;5025191;28;20103;-70
2023/01/03 08:25:35;;;;;;;7.15;5.32;;;12.30;90.80;;;;;;5024375;28;20029;-69
2023/01/03 08:28:00;;;;;;;8.13;5.72;;;12.30;90.80;;;;;;5026180;28;20029;-70
2023/01/03 08:30:27;;;;;;;8.25;5.95;;;12.30;90.80;;;;;;5024755;28;20048;-70
2023/01/03 08:32:54;;;;;;;8.50;6.40;;;12.30;90.80;;;;;;5025188;28;20628;-72
2023/01/03 08:35:22;;;;;;;8.48;6.13;;;12.20;90.70;;;;;;5041922;28;20040;-75
2023/01/03 08:37:49;;;;;;;8.55;6.30;;;12.30;90.70;;;;;;5038958;28;20036;-74
2023/01/03 08:40:16;;;;;;;8.48;5.85;;;12.30;90.70;;;;;;5026257;28;20029;-70
2023/01/03 08:42:44;;;;;;;7.75;5.63;;;12.30;90.80;;;;;;5022918;28;20408;-69
2023/01/03 08:45:14;;;;;;;8.70;6.05;;;12.30;90.70;;;;;;5024270;28;20596;-70
2023/01/03 08:47:41;;;;;;;9.60;6.72;;;12.30;90.70;;;;;;5023668;28;20091;-70
2023/01/03 08:50:07;;;;;;;9.00;6.40;;;12.30;90.90;;;;;;5022749;28;20033;-74
2023/01/03 08:52:32;;;;;;;8.77;6.60;;;12.30;90.70;;;;;;5024469;28;20576;-72
2023/01/03 08:54:58;;;;;;;7.65;5.70;;;12.40;90.70;;;;;;5024542;28;20109;-72
2023/01/03 08:57:23;;;;;;;8.23;6.00;;;12.30;90.60;;;;;;5025913;28;20041;-73
2023/01/03 08:59:49;;;;;;;8.35;6.00;;;12.40;90.50;;;;;;5041148;28;20082;-71
2023/01/03 09:02:14;;;;;;;7.97;5.80;;;12.40;90.50;;;;;;5025691;28;20411;-72
2023/01/03 09:04:40;;;;;;;7.75;5.65;;;12.50;90.40;;;;;;5025325;28;20041;-71
2023/01/03 09:07:05;;;;;;;8.07;5.70;;;12.50;90.30;;;;;;5040780;28;20446;-70
2023/01/03 09:09:31;;;;;;;8.27;6.20;;;12.60;90.20;;;;;;5025521;28;20033;-70
2023/01/03 09:11:56;;;;;;;8.05;5.88;;;12.60;90.30;;;;;;5025455;28;20037;-71
2023/01/03 09:14:22;;;;;;;7.95;5.70;;;12.60;90.00;;;;;;5025855;28;20053;-72
2023/01/03 09:16:47;;;;;;;8.30;6.07;;;12.70;89.90;;;;;;5024062;28;20033;-69
2023/01/03 09:19:13;;;;;;;9.30;6.32;;;12.80;90.00;;;;;;5025661;28;20547;-70
2023/01/03 09:21:38;;;;;;;8.15;5.90;;;12.80;89.80;;;;;;5025264;28;20036;-69
2023/01/03 09:24:04;;;;;;;8.90;6.40;;;12.80;89.80;;;;;;5024057;28;20132;-69
2023/01/03 09:26:30;;;;;;;8.98;6.00;;;12.80;89.60;;;;;;5025052;28;20511;-70
2023/01/03 09:28:55;;;;;;;7.78;5.95;;;12.90;89.70;;;;;;5040494;28;20025;-70
2023/01/03 09:31:21;;;;;;;8.52;6.10;;;12.90;89.50;;;;;;5024833;28;20502;-71
2023/01/03 09:33:46;;;;;;;7.50;5.40;;;13.00;89.50;;;;;;5025352;28;20078;-72
2023/01/03 09:36:12;;;;;;;7.93;5.43;;;13.00;89.30;;;;;;5024961;28;20030;-71
2023/01/03 09:38:37;;;;;;;8.60;6.20;;;13.00;89.10;;;;;;5040564;28;20555;-73
2023/01/03 09:41:06;;;;;;;7.88;5.72;;;13.10;89.20;;;;;;5023518;28;20472;-72
2023/01/03 09:43:41;;;;;;;7.93;6.07;;;13.10;89.00;;;;;;5023673;28;20072;-71
2023/01/03 09:46:34;;;;;;;7.28;5.20;;;13.10;88.80;;;;;;5030355;28;20032;-72
2023/01/03 09:49:01;;;;;;;8.05;5.70;;;13.10;88.70;;;;;;5041178;28;20037;-72
2023/01/03 10:03:42;;;;;;;8.00;5.97;;;13.30;88.20;;;;;;5045265;28;20506;-69
2023/01/03 10:06:28;;;;;;;8.25;6.03;;;13.30;87.90;;;;;;5043209;28;20037;-71
2023/01/03 10:09:21;;;;;;;8.50;6.07;;;13.30;87.70;;;;;;5043177;28;20064;-69
2023/01/03 10:12:11;;;;;;;8.05;5.82;;;13.40;87.70;;;;;;5044534;28;20100;-69
2023/01/03 10:14:54;;;;;;;;;;;13.40;87.50;;;;;;5045219;28;20029;-70
2023/01/03 10:17:50;;;;;;;8.73;5.85;;;13.40;87.20;;;;;;5048844;28;20143;-68
2023/01/03 10:20:51;;;;;;;8.27;5.88;;;13.40;87.00;;;;;;5049045;28;20039;-72
2023/01/03 10:23:17;;;;;;;8.27;5.97;;;13.50;86.80;;;;;;5006205;28;20044;-68
2023/01/03 10:25:44;;;;;;;8.18;5.97;;;13.50;86.70;;;;;;5047444;28;20037;-70
2023/01/03 10:28:13;;;;;;;8.57;5.80;;;13.50;86.40;;;;;;5047051;28;20290;-69
2023/01/03 10:31:07;;;;;;;7.85;5.63;;;13.60;86.50;;;;;;5048241;28;20402;-69
2023/01/03 10:33:38;;;;;;;9.35;6.20;;;13.40;86.20;;;;;;5047335;28;20065;-70
2023/01/03 10:36:04;;;;;;;7.70;5.47;;;13.60;85.90;;;;;;5047239;28;20033;-69
2023/01/03 10:38:30;;;;;;;7.88;5.78;;;13.60;85.70;;;;;;5047073;28;20030;-69
2023/01/03 10:40:58;;;;;;;8.48;6.10;;;13.70;85.70;;;;;;5048313;28;20108;-69
2023/01/03 10:43:42;;;;;;;10.13;6.40;;;13.70;85.40;;;;;;5048234;28;20111;-69
2023/01/03 10:46:24;;;;;;;8.60;5.95;;;13.70;85.30;;;;;;5048223;28;20422;-69
2023/01/03 10:48:51;;;;;;;8.30;5.80;;;13.80;85.10;;;;;;5047671;28;20029;-69
2023/01/03 10:51:32;;;;;;;7.78;5.50;;;13.90;85.10;;;;;;5047851;28;20029;-69
2023/01/03 10:53:59;;;;;;;8.48;5.95;;;13.90;85.10;;;;;;5046812;28;20079;-70
2023/01/03 10:56:28;;;;;;;8.48;5.35;;;14.00;84.70;;;;;;5046748;28;20491;-71
2023/01/03 10:59:15;;;;;;;9.05;5.55;;;14.00;84.60;;;;;;5046521;28;20033;-70
2023/01/03 11:01:59;;;;;;;7.72;5.85;;;14.10;84.00;;;;;;5047543;28;20918;-68
2023/01/03 11:04:26;;;;;;;8.55;5.30;;;14.10;84.00;;;;;;5046998;28;20112;-69
2023/01/03 11:07:03;;;;;;;9.57;6.07;;;14.20;84.10;;;;;;5047946;28;20387;-68
2023/01/03 11:09:52;;;;;;;7.53;4.95;;;14.20;83.50;;;;;;5048004;28;20395;-70
2023/01/03 11:12:33;;;;;;;7.40;5.22;;;14.30;83.70;;;;;;5047748;28;20025;-68
2023/01/03 11:15:00;;;;;;;7.70;5.30;;;14.30;83.30;;;;;;5046492;28;20052;-69
2023/01/03 11:17:27;;;;;;;7.45;4.85;;;14.20;83.10;;;;;;5048085;28;20021;-69
2023/01/03 11:19:55;;;;;;;7.05;5.00;;;14.20;83.60;;;;;;5047743;28;20037;-70
2023/01/03 11:22:32;;;;;;;7.70;5.28;;;14.10;84.10;;;;;;5047580;28;20086;-69
2023/01/03 11:25:41;;;;;;;7.55;5.07;;;14.00;84.90;;;;;;5046261;28;20029;-70
2023/01/03 11:29:03;;;;;;;7.20;4.97;;;14.00;85.00;;;;;;5045281;28;20087;-70
2023/01/03 11:31:33;;;;;;;7.78;5.20;;;13.90;85.50;;;;;;4949805;28;20030;-72
2023/01/03 11:34:08;;;;;;;7.95;4.90;;;13.80;85.70;;;;;;4953182;28;20438;-79
2023/01/03 11:36:48;;;;;;;8.40;5.15;;;13.70;85.90;;;;;;5015947;28;20037;-75
2023/01/03 11:39:46;;;;;;;7.60;4.95;;;13.70;86.00;;;;;;5044817;28;20133;-69
2023/01/03 11:42:39;;;;;;;8.25;4.97;;;13.60;86.00;;;;;;5022734;28;20095;-69
2023/01/03 11:45:19;;;;;;;6.88;4.50;;;13.60;86.30;;;;;;5046534;28;20507;-70
2023/01/03 11:48:22;;;;;;;8.05;4.90;;;13.50;86.50;;;;;;5031586;28;20031;-70
2023/01/03 11:50:48;;;;;;;7.65;5.13;;;13.50;86.60;;;;;;5045399;28;20415;-70
2023/01/03 11:53:16;;;;;;;6.85;4.57;;;13.50;86.80;;;;;;5041608;28;20091;-71
2023/01/03 11:56:05;;;;;;;8.20;5.32;;;13.40;87.40;;;;;;5026744;28;20021;-69
2023/01/03 11:58:58;;;;;;;7.53;4.88;;;13.40;86.90;;;;;;5026918;28;20025;-70
2023/01/03 12:01:56;;;;;;;6.88;4.28;;;13.40;86.90;;;;;;5026932;28;20033;-72
2023/01/03 12:04:24;;;;;;;7.22;4.55;;;13.30;87.00;;;;;;5026949;28;20025;-72
2023/01/03 12:07:19;;;;;;;8.30;4.60;;;13.30;87.20;;;;;;5042425;28;20078;-72
2023/01/03 12:09:56;;;;;;;6.75;4.30;;;13.30;87.40;;;;;;5040709;28;20140;-71
2023/01/03 12:12:31;;;;;;;7.47;4.32;;;13.30;87.40;;;;;;5046675;28;20488;-71
2023/01/03 12:15:22;;;;;;;7.07;4.65;;;13.30;87.40;;;;;;5046520;28;20526;-70
2023/01/03 12:18:07;;;;;;;6.60;4.28;;;13.30;87.60;;;;;;5045248;28;20043;-71
2023/01/03 12:20:44;;;;;;;7.25;4.63;;;13.20;87.50;;;;;;5046732;28;20078;-70
2023/01/03 12:23:38;;;;;;;7.10;4.53;;;13.30;87.60;;;;;;5045522;28;20025;-70
2023/01/03 12:26:07;;;;;;;6.10;3.95;;;13.20;87.60;;;;;;5045704;28;20044;-71
2023/01/03 12:28:48;;;;;;;7.35;4.68;;;13.20;87.60;;;;;;5044701;28;20258;-73
2023/01/03 12:31:31;;;;;;;6.63;4.40;;;13.20;87.80;;;;;;5044102;28;20483;-71
2023/01/03 12:34:26;;;;;;;6.70;4.30;;;13.20;88.10;;;;;;5045688;28;20061;-70
2023/01/03 12:37:13;;;;;;;6.32;4.13;;;13.20;88.20;;;;;;5044364;28;20330;-70
2023/01/03 12:39:55;;;;;;;7.57;4.95;;;13.10;88.20;;;;;;5043524;28;20029;-72
2023/01/03 12:42:42;;;;;;;6.43;4.18;;;13.10;88.30;;;;;;5035178;28;20029;-71
2023/01/03 12:45:09;;;;;;;6.53;4.47;;;13.10;88.30;;;;;;5024901;28;20022;-72
2023/01/03 12:47:43;;;;;;;6.55;4.18;;;13.10;88.40;;;;;;5025965;28;20084;-70
2023/01/03 12:50:26;;;;;;;6.80;4.30;;;13.10;88.40;;;;;;5025305;28;20480;-71
2023/01/03 12:53:17;;;;;;;6.43;3.92;;;13.10;88.50;;;;;;5023856;28;20036;-72
2023/01/03 12:56:12;;;;;;;6.95;4.10;;;13.10;88.60;;;;;;5041903;28;20025;-70
2023/01/03 12:58:59;;;;;;;6.03;4.00;;;13.00;88.60;;;;;;5035429;28;20034;-71
2023/01/03 13:01:36;;;;;;;7.40;4.65;;;13.00;88.70;;;;;;5026877;28;20104;-71
2023/01/03 13:04:17;;;;;;;6.95;4.30;;;13.00;88.70;;;;;;5026145;28;20033;-70
2023/01/03 13:07:02;;;;;;;;;;;13.00;88.80;;;;;;5025691;28;20036;-70
2023/01/03 13:09:34;;;;;;;6.95;3.95;;;13.00;88.90;;;;;;5024418;28;19909;-70
2023/01/03 13:12:07;;;;;;;7.05;4.15;;;13.00;89.00;;;;;;5028333;28;20400;-70
2023/01/03 13:14:54;;;;;;;6.10;3.90;;;13.00;89.00;;;;;;5047661;28;20162;-71
2023/01/03 13:17:27;;;;;;;6.80;4.00;;;12.90;89.00;;;;;;5045860;28;20036;-78
2023/01/03 13:20:16;;;;;;;6.32;3.92;;;12.90;89.10;;;;;;5047904;28;20437;-69
2023/01/03 13:22:51;;;;;;;6.72;3.72;;;12.90;89.10;;;;;;5045437;28;20033;-70
2023/01/03 13:25:40;;;;;;;5.78;3.50;;;12.90;89.20;;;;;;5044003;28;20426;-70
2023/01/03 13:28:05;;;;;;;7.38;3.90;;;12.90;89.20;;;;;;5045424;28;20100;-71
2023/01/03 13:30:33;;;;;;;6.18;3.85;;;12.90;89.30;;;;;;5045649;28;20092;-70
2023/01/03 13:33:15;;;;;;;5.97;3.50;;;12.90;89.30;;;;;;5044146;28;20056;-72
2023/01/03 13:35:44;;;;;;;6.20;3.90;;;12.90;89.40;;;;;;5045744;28;20505;-71
2023/01/03 13:38:20;;;;;;;6.93;3.83;;;12.90;89.50;;;;;;5045213;28;20561;-72
2023/01/03 13:40:51;;;;;;;6.55;4.00;;;12.80;89.30;;;;;;5043253;28;20075;-70
2023/01/03 13:43:22;;;;;;;5.97;3.80;;;12.80;89.40;;;;;;5045117;28;20036;-71
2023/01/03 13:45:53;;;;;;;7.10;4.00;;;12.80;89.40;;;;;;5044977;28;20041;-71
2023/01/03 13:48:31;;;;;;;7.15;4.20;;;12.80;89.30;;;;;;5043784;28;20052;-70
2023/01/03 13:51:15;;;;;;;6.85;3.90;;;12.80;89.30;;;;;;5044369;28;20246;-71
2023/01/03 13:53:58;;;;;;;6.13;3.60;;;12.80;89.20;;;;;;5045324;28;20491;-70
2023/01/03 13:56:29;;;;;;;6.40;3.85;;;12.80;89.20;;;;;;5044030;28;20064;-71
2023/01/03 13:59:08;;;;;;;;;;;12.80;89.20;;;;;;5044394;28;20025;-70
2023/01/03 14:01:50;;;;;;;5.77;3.37;;;12.80;89.20;;;;;;5043817;28;20644;-69
2023/01/03 14:04:36;;;;;;;6.93;3.83;;;12.80;89.20;;;;;;5045242;28;20057;-72
2023/01/03 14:07:35;;;;;;;6.40;3.95;;;12.80;89.10;;;;;;5043361;28;20498;-71
2023/01/03 14:10:30;;;;;;;6.05;3.67;;;12.80;89.10;;;;;;5043343;28;20033;-70
2023/01/03 14:13:11;;;;;;;5.82;3.47;;;12.80;89.10;;;;;;5043302;28;20025;-71
2023/01/03 14:15:36;;;;;;;6.15;3.53;;;12.80;89.10;;;;;;5043058;28;20032;-70